Latest Weather Observations for Melbourne Airport

IDV60801

Issued at 11:02 pm EST Saturday 30 July 2016 (issued every 30 minutes, with the page automatically refreshed every 10 minutes)

About weather observations | Map of weather stations | Latest weather observations for VIC | Other Formats
Station Details ID: 086282 Name: MELBOURNE AIRPORT Lat: -37.67 Lon: 144.83 Height: 113.4 m
Data from the previous 72 hours. | See also: Recent months at Melbourne Airport
Date/Time
EST
Temp
°C
App
Temp
°C
Dew
Point
°C
Rel
Hum
%
Delta-T
°C
Wind Press
QNH
hPa
Press
MSL
hPa
Rain since
9am
mm
Dir  Spd
km/h
Gust
km/h
Spd
kts
Gust
kts
30/10:33pm 10.8 1.9 7.7 81 1.5 N 44 63 24 34 1014.9 1015.1 0.0
30/10:30pm 10.9 2.2 7.6 80 1.6 N 43 56 23 30 1015.0 1015.2 0.0
30/10:03pm 10.7 1.5 7.8 82 1.4 N 46 65 25 35 1015.2 1015.4 0.0
30/10:00pm 10.8 0.8 7.7 81 1.5 N 50 65 27 35 1015.1 1015.3 0.0
30/09:30pm 10.8 0.4 7.7 81 1.5 N 52 70 28 38 1014.5 1014.7 0.0
30/09:04pm 10.8 -0.4 7.5 80 1.6 N 56 74 30 40 1013.8 1014.0 0.0
30/09:00pm 10.7 -0.7 7.6 81 1.5 N 57 74 31 40 1013.5 1013.7 0.0
30/08:36pm 10.7 -0.1 7.6 81 1.5 N 54 72 29 39 1013.2 1013.4 0.0
30/08:30pm 10.7 0.3 7.6 81 1.5 N 52 69 28 37 1013.4 1013.6 0.0
30/08:00pm 10.8 0.3 7.5 80 1.6 N 52 72 28 39 1013.4 1013.6 0.0
30/07:59pm 10.8 0.7 7.5 80 1.6 N 50 69 27 37 1013.4 1013.6 0.0
30/07:30pm 10.9 3.7 7.6 80 1.6 N 35 48 19 26 1015.3 1015.5 0.0
30/07:00pm 10.8 2.1 7.5 80 1.6 N 43 57 23 31 1015.0 1015.2 0.0
30/06:30pm 10.7 0.6 7.4 80 1.6 N 50 76 27 41 1014.4 1014.6 0.0
30/06:21pm 10.8 -0.1 7.3 79 1.7 N 54 76 29 41 1014.1 1014.3 0.0
30/06:00pm 10.7 0.2 7.2 79 1.7 N 52 69 28 37 1013.6 1013.8 0.0
30/05:30pm 10.6 0.1 7.3 80 1.6 N 52 65 28 35 1013.9 1014.1 0.0
30/05:25pm 10.6 0.5 7.3 80 1.6 N 50 65 27 35 1013.8 1014.0 0.0
30/05:00pm 10.8 3.1 7.3 79 1.7 N 37 56 20 30 1014.2 1014.4 0.0
30/04:30pm 11.3 6.1 7.4 77 1.9 NNE 24 37 13 20 1015.4 1015.6 0.0
30/04:00pm 11.5 5.1 7.1 74 2.1 NNE 30 39 16 21 1015.6 1015.8 0.0
30/03:30pm 11.6 4.8 7.5 76 2.0 N 33 43 18 23 1016.0 1016.2 0.0
30/03:00pm 11.7 5.0 8.0 78 1.8 N 33 43 18 23 1016.5 1016.7 0.0
30/02:30pm 11.7 4.1 7.6 76 2.0 N 37 50 20 27 1016.3 1016.5 0.0
30/02:00pm 11.9 4.7 7.8 76 2.0 N 35 48 19 26 1017.3 1017.5 0.0
30/01:30pm 12.2 3.6 8.2 76 2.0 N 43 57 23 31 1017.2 1017.4 0.0
30/01:00pm 12.6 3.7 7.7 72 2.4 N 44 63 24 34 1017.6 1017.8 0.0
30/12:55pm 12.7 3.7 7.1 69 2.7 N 44 63 24 34 1017.8 1018.0 0.0
30/12:30pm 13.5 7.6 7.6 67 2.9 N 28 41 15 22 1018.8 1019.0 0.0
30/12:00pm 13.2 6.4 7.5 68 2.8 N 33 52 18 28 1019.2 1019.4 0.0
30/11:45am 13.4 5.8 7.7 68 2.8 N 37 56 20 30 1018.9 1019.1 0.0
30/11:30am 12.8 4.8 7.5 70 2.6 N 39 52 21 28 1019.3 1019.5 0.0
30/11:00am 12.6 5.5 7.9 73 2.3 N 35 43 19 23 1019.7 1019.9 0.0
30/10:33am 11.9 5.4 8.3 78 1.8 N 32 43 17 23 1020.1 1020.3 0.0
30/10:30am 11.9 5.3 8.5 80 1.7 N 33 48 18 26 1020.1 1020.3 0.0
30/10:00am 12.6 7.0 8.6 76 2.0 NNE 28 37 15 20 1020.4 1020.6 0.0
30/09:30am 11.4 4.9 8.1 80 1.6 N 32 37 17 20 1020.7 1020.9 0.0
30/09:00am 11.1 4.4 8.0 81 1.5 N 33 48 18 26 1020.7 1020.9 2.0
30/08:30am 10.7 4.6 8.2 84 1.2 N 30 43 16 23 1020.8 1021.0 2.0
30/08:00am 9.7 4.7 8.0 89 0.8 N 24 30 13 16 1020.8 1021.0 2.0
30/07:30am 8.7 4.4 7.0 89 0.8 N 19 32 10 17 1021.1 1021.3 2.0
30/07:00am 8.3 3.8 6.8 90 0.7 N 20 26 11 14 1021.3 1021.5 2.0
30/06:30am 7.6 3.3 7.0 96 0.3 N 19 20 10 11 1021.1 1021.3 2.0
30/06:00am 7.4 3.0 6.7 95 0.3 N 19 22 10 12 1021.1 1021.3 2.0
30/05:30am 7.6 3.3 7.2 97 0.2 N 19 22 10 12 1021.2 1021.4 2.0
30/05:00am 8.4 4.0 7.6 95 0.4 N 20 24 11 13 1021.4 1021.6 2.0
30/04:30am 8.2 4.0 7.3 94 0.4 N 19 22 10 12 1021.3 1021.5 2.0
30/04:00am 8.9 4.7 7.6 91 0.6 N 19 20 10 11 1021.3 1021.5 2.0
30/03:30am 9.0 4.9 7.7 91 0.6 N 19 20 10 11 1021.2 1021.4 2.0
30/03:00am 9.1 5.0 7.8 92 0.6 N 19 19 10 10 1021.4 1021.6 2.0
30/02:30am 9.3 5.6 7.8 90 0.7 N 17 20 9 11 1021.7 1021.9 2.0
30/02:00am 7.8 3.8 6.7 93 0.5 N 17 19 9 10 1021.9 1022.1 2.0
30/01:30am 7.8 3.9 6.9 94 0.4 N 17 19 9 10 1022.0 1022.2 2.0
30/01:00am 8.5 5.0 7.2 91 0.6 NNW 15 19 8 10 1022.0 1022.2 2.0
30/12:30am 7.6 3.6 6.7 94 0.4 N 17 19 9 10 1022.0 1022.2 2.0
30/12:00am 9.5 5.7 7.4 87 1.0 NNW 17 19 9 10 1022.0 1022.2 2.0
 
Date/Time
EST
Temp
°C
App
Temp
°C
Dew
Point
°C
Rel
Hum
%
Delta-T
°C
Wind Press
QNH
hPa
Press
MSL
hPa
Rain since
9am
mm
Dir  Spd
km/h
Gust
km/h
Spd
kts
Gust
kts
29/11:30pm 10.0 6.2 7.7 86 1.1 N 17 19 9 10 1022.2 1022.4 2.0
29/11:00pm 10.1 6.0 7.8 86 1.1 N 19 20 10 11 1022.2 1022.4 2.0
29/10:30pm 9.1 5.7 7.8 92 0.6 N 15 17 8 9 1022.2 1022.4 2.0
29/10:00pm 9.9 7.0 8.3 90 0.8 N 13 17 7 9 1022.2 1022.4 2.0
29/09:30pm 9.7 7.3 8.7 93 0.5 N 11 15 6 8 1022.2 1022.4 2.0
29/09:00pm 9.5 7.4 8.3 92 0.6 NNE 9 13 5 7 1022.0 1022.2 2.0
29/08:30pm 10.0 7.3 9.0 93 0.5 N 13 15 7 8 1021.9 1022.1 2.0
29/08:00pm 10.3 6.9 9.1 92 0.6 N 17 19 9 10 1021.8 1022.0 2.0
29/07:30pm 10.9 8.7 9.5 91 0.7 NNW 11 15 6 8 1021.8 1022.0 2.0
29/07:00pm 11.2 8.7 9.8 91 0.7 N 13 15 7 8 1021.4 1021.6 2.0
29/06:30pm 11.1 9.1 10.1 94 0.5 NNW 11 15 6 8 1021.1 1021.3 2.0
29/06:00pm 11.4 9.0 10.0 91 0.7 NW 13 17 7 9 1020.8 1021.0 2.0
29/05:30pm 11.3 9.8 10.5 95 0.4 NW 9 13 5 7 1020.8 1021.0 1.8
29/05:00pm 11.5 10.0 10.5 94 0.5 SSE 9 11 5 6 1020.6 1020.8 1.2
29/04:41pm 12.0 10.8 10.3 89 0.9 WNW 7 9 4 5 1020.4 1020.6 0.2
29/04:30pm 12.0 10.4 10.3 89 0.9 N 9 13 5 7 1020.3 1020.5 0.2
29/04:00pm 12.3 9.0 9.5 83 1.4 NW 17 26 9 14 1020.1 1020.3 0.0
29/03:30pm 13.9 10.7 8.3 69 2.8 NNW 15 22 8 12 1019.8 1020.0 0.0
29/03:00pm 13.3 10.2 8.7 73 2.3 NW 15 20 8 11 1019.8 1020.0 0.0
29/02:30pm 13.6 10.0 8.2 70 2.7 N 17 22 9 12 1019.6 1019.8 0.0
29/02:00pm 13.1 10.4 8.9 75 2.1 NW 13 17 7 9 1019.8 1020.0 0.0
29/01:30pm 13.2 9.1 7.7 69 2.7 NNW 19 24 10 13 1020.0 1020.2 0.0
29/01:00pm 13.3 8.9 7.4 67 2.9 NNW 20 30 11 16 1020.2 1020.4 0.0
29/12:30pm 13.2 8.4 7.3 67 2.9 NNW 22 33 12 18 1020.4 1020.6 0.0
29/12:00pm 13.3 8.6 7.6 68 2.8 NNW 22 33 12 18 1020.7 1020.9 0.0
29/11:30am 12.8 6.8 7.0 68 2.8 NNW 28 37 15 20 1021.1 1021.3 0.0
29/11:00am 13.1 6.3 6.9 66 3.0 NNW 32 41 17 22 1021.0 1021.2 0.0
29/10:30am 12.8 6.3 6.5 65 3.0 NNW 30 41 16 22 1021.4 1021.6 0.0
29/10:00am 12.8 5.7 6.3 64 3.1 NNW 33 48 18 26 1021.3 1021.5 0.0
29/09:30am 12.2 5.4 6.8 69 2.6 NNW 32 44 17 24 1021.4 1021.6 0.0
29/09:00am 11.1 4.8 7.6 79 1.7 N 30 37 16 20 1021.5 1021.7 0.0
29/08:30am 9.7 3.4 7.2 84 1.2 N 30 33 16 18 1021.4 1021.6 0.0
29/08:00am 9.0 2.6 6.9 87 1.0 N 30 37 16 20 1021.2 1021.4 0.0
29/07:30am 8.5 2.1 6.8 89 0.8 N 30 35 16 19 1021.1 1021.3 0.0
29/07:00am 8.6 2.1 6.7 88 0.9 N 30 35 16 19 1021.0 1021.2 0.0
29/06:30am 8.9 2.4 6.5 85 1.1 N 30 35 16 19 1021.0 1021.2 0.0
29/06:00am 9.2 2.2 6.2 81 1.4 N 32 39 17 21 1020.8 1021.0 0.0
29/05:30am 9.4 3.2 6.2 80 1.5 N 28 32 15 17 1021.1 1021.3 0.0
29/05:00am 9.4 3.9 5.9 79 1.6 N 24 32 13 17 1021.4 1021.6 0.0
29/04:30am 9.2 3.3 5.9 80 1.5 N 26 32 14 17 1021.2 1021.4 0.0
29/04:00am 9.7 3.8 5.8 77 1.8 N 26 33 14 18 1020.9 1021.1 0.0
29/03:30am 9.4 3.5 5.7 78 1.7 N 26 32 14 17 1021.1 1021.3 0.0
29/03:00am 7.7 2.5 5.7 87 0.9 N 22 30 12 16 1021.4 1021.6 0.0
29/02:30am 9.0 4.2 5.7 80 1.5 N 20 26 11 14 1021.9 1022.1 0.0
29/02:00am 9.1 4.0 5.8 80 1.5 N 22 26 12 14 1021.7 1021.9 0.0
29/01:30am 9.2 3.8 6.4 83 1.3 N 24 28 13 15 1022.1 1022.3 0.0
29/01:00am 9.6 4.6 6.6 81 1.4 N 22 28 12 15 1022.5 1022.7 0.0
29/12:30am 9.7 4.8 6.7 81 1.4 N 22 26 12 14 1022.4 1022.6 0.0
29/12:00am 9.5 4.6 6.7 83 1.3 N 22 28 12 15 1022.7 1022.9 0.0
 
Date/Time
EST
Temp
°C
App
Temp
°C
Dew
Point
°C
Rel
Hum
%
Delta-T
°C
Wind Press
QNH
hPa
Press
MSL
hPa
Rain since
9am
mm
Dir  Spd
km/h
Gust
km/h
Spd
kts
Gust
kts
28/11:30pm 9.6 4.2 6.4 80 1.5 N 24 30 13 16 1022.8 1023.0 0.0
28/11:00pm 10.0 4.5 6.1 77 1.8 NNW 24 30 13 16 1023.1 1023.3 0.0
28/10:30pm 8.9 3.5 6.3 84 1.2 N 24 28 13 15 1023.1 1023.3 0.0
28/10:00pm 8.6 2.8 6.4 86 1.0 N 26 33 14 18 1023.3 1023.5 0.0
28/09:30pm 8.8 2.7 6.4 85 1.1 N 28 33 15 18 1023.3 1023.5 0.0
28/09:00pm 9.3 4.3 6.3 81 1.4 N 22 30 12 16 1023.6 1023.8 0.0
28/08:30pm 9.5 4.5 6.3 80 1.5 N 22 28 12 15 1023.5 1023.7 0.0
28/08:00pm 10.3 5.3 6.5 77 1.8 N 22 30 12 16 1023.5 1023.7 0.0
28/07:30pm 10.6 6.5 6.3 75 2.0 N 17 22 9 12 1023.6 1023.8 0.0
28/07:00pm 10.8 6.6 5.8 71 2.3 N 17 22 9 12 1023.7 1023.9 0.0
28/06:30pm 11.3 6.7 5.7 68 2.6 N 19 24 10 13 1023.5 1023.7 0.0
28/06:00pm 12.2 7.5 5.3 62 3.2 N 19 24 10 13 1023.1 1023.3 0.0
28/05:30pm 12.6 8.5 6.0 64 3.1 NNW 17 22 9 12 1023.0 1023.2 0.0
28/05:00pm 13.4 9.6 5.8 60 3.6 NNW 15 20 8 11 1022.7 1022.9 0.0
28/04:30pm 13.3 10.0 6.2 62 3.4 WNW 13 19 7 10 1022.6 1022.8 0.0
28/04:00pm 13.8 11.2 6.0 59 3.7 NW 9 15 5 8 1022.6 1022.8 0.0
28/03:30pm 13.8 10.4 6.0 59 3.7 WNW 13 15 7 8 1022.6 1022.8 0.0
28/03:00pm 13.8 10.4 6.0 59 3.7 NW 13 17 7 9 1022.7 1022.9 0.0
28/02:30pm 13.9 9.7 5.7 57 3.9 NW 17 24 9 13 1022.6 1022.8 0.0
28/02:00pm 13.7 8.8 5.1 56 4.0 WNW 20 35 11 19 1022.7 1022.9 0.0
28/01:30pm 13.6 8.0 5.3 57 3.9 WNW 24 32 13 17 1022.9 1023.1 0.0
28/01:00pm 13.5 6.7 5.1 57 3.9 W 30 39 16 21 1023.4 1023.6 0.0
28/12:30pm 13.2 6.9 5.5 59 3.6 WNW 28 33 15 18 1023.5 1023.7 0.0
28/12:00pm 13.2 5.9 4.7 56 3.9 WNW 32 39 17 21 1023.7 1023.9 0.0
28/11:30am 13.3 7.3 5.1 57 3.8 WNW 26 35 14 19 1024.0 1024.2 0.0
28/11:00am 12.5 6.0 4.6 58 3.6 WNW 28 35 15 19 1024.3 1024.5 0.0
28/10:30am 11.9 7.2 5.9 66 2.8 N 20 26 11 14 1024.4 1024.6 0.0
28/10:00am 11.4 7.3 6.1 70 2.5 NNW 17 22 9 12 1024.4 1024.6 0.0
28/09:30am 9.8 4.7 5.9 77 1.8 N 22 28 12 15 1024.2 1024.4 0.0
28/09:00am 9.0 4.4 5.5 79 1.6 N 19 22 10 12 1024.2 1024.4 0.0
28/08:30am 9.2 4.8 4.7 73 2.0 NNW 17 22 9 12 1024.1 1024.3 0.0
28/08:00am 7.7 3.6 4.3 79 1.5 N 15 20 8 11 1023.9 1024.1 0.0
28/07:30am 7.7 3.2 4.0 77 1.6 N 17 19 9 10 1023.7 1023.9 0.0
28/07:00am 6.2 2.0 3.8 85 1.0 N 15 17 8 9 1023.6 1023.8 0.0
28/06:30am 6.5 3.2 4.4 86 0.9 NNW 11 15 6 8 1023.0 1023.2 0.0
28/06:00am 8.2 4.5 4.3 76 1.7 NW 13 19 7 10 1022.8 1023.0 0.0
28/05:30am 6.9 2.8 4.4 84 1.1 N 15 20 8 11 1022.7 1022.9 0.0
28/05:00am 5.8 1.6 3.9 88 0.8 N 15 17 8 9 1022.5 1022.7 0.0
28/04:30am 5.6 2.1 3.4 86 0.9 NNW 11 15 6 8 1022.4 1022.6 0.0
28/04:00am 6.9 3.2 4.4 84 1.1 NNW 13 17 7 9 1022.2 1022.4 0.0
28/03:30am 7.6 3.1 4.1 78 1.5 N 17 26 9 14 1021.9 1022.1 0.0
28/03:00am 6.6 1.7 4.0 83 1.1 N 19 22 10 12 1022.3 1022.5 0.0
28/02:30am 6.4 1.3 4.1 85 1.0 N 20 24 11 13 1022.2 1022.4 0.0
28/02:00am 7.8 3.7 4.4 79 1.5 NNW 15 19 8 10 1022.3 1022.5 0.0
28/01:30am 6.6 2.8 4.0 83 1.1 NNW 13 15 7 8 1022.6 1022.8 0.0
28/01:00am 6.9 2.3 3.9 81 1.3 NNW 17 20 9 11 1022.3 1022.5 0.0
28/12:30am 7.7 3.2 4.3 79 1.5 NW 17 26 9 14 1022.3 1022.5 0.0
28/12:00am 5.9 2.0 3.3 83 1.1 N 13 17 7 9 1022.4 1022.6 0.0
 
Date/Time
EST
Temp
°C
App
Temp
°C
Dew
Point
°C
Rel
Hum
%
Delta-T
°C
Wind Press
QNH
hPa
Press
MSL
hPa
Rain since
9am
mm
Dir  Spd
km/h
Gust
km/h
Spd
kts
Gust
kts
27/11:30pm 6.3 2.4 3.5 82 1.2 N 13 15 7 8 1022.3 1022.5 0.0

Other Formats:

Comma delimited format used in spreadsheet applications
http://www.bom.gov.au/fwo/IDV60801/IDV60801.94866.axf

JavaScript Object Notation format (JSON) in row-major order
http://www.bom.gov.au/fwo/IDV60801/IDV60801.94866.json